createdAt,value
2018-03-18T00:01:10.665Z,49.50
2018-03-18T00:03:38.143Z,58.90
2018-03-18T00:06:05.611Z,47.20
2018-03-18T00:08:33.837Z,53.80
2018-03-18T00:11:01.299Z,45.53
2018-03-18T00:13:28.771Z,43.00
2018-03-18T00:15:56.229Z,48.50
2018-03-18T00:18:23.712Z,43.03
2018-03-18T00:20:52.000Z,44.33
2018-03-18T00:23:20.239Z,45.33
2018-03-18T00:25:47.700Z,48.90
2018-03-18T00:28:15.171Z,50.50
2018-03-18T00:30:42.670Z,48.47
2018-03-18T00:33:10.137Z,49.50
2018-03-18T00:35:37.607Z,44.90
2018-03-18T00:38:05.086Z,48.40
2018-03-18T00:40:32.548Z,47.23
2018-03-18T00:43:00.009Z,49.87
2018-03-18T00:45:27.488Z,49.17
2018-03-18T00:47:55.715Z,46.27
2018-03-18T00:50:23.194Z,49.13
2018-03-18T00:52:50.663Z,50.30
2018-03-18T00:55:18.134Z,48.20
2018-03-18T00:57:46.368Z,43.93
2018-03-18T01:00:14.021Z,47.90
2018-03-18T01:02:41.544Z,49.80
2018-03-18T01:05:09.787Z,45.60
2018-03-18T01:07:37.235Z,49.17
2018-03-18T01:10:04.709Z,50.13
2018-03-18T01:12:32.182Z,51.63
2018-03-18T01:15:00.430Z,49.60
2018-03-18T01:17:27.890Z,54.73
2018-03-18T01:19:55.370Z,49.47
2018-03-18T01:22:23.599Z,50.40
2018-03-18T01:24:51.079Z,54.10
2018-03-18T01:27:18.542Z,46.67
2018-03-18T01:29:46.014Z,48.03
2018-03-18T01:32:14.257Z,53.50
2018-03-18T01:34:42.508Z,53.63
2018-03-18T01:37:09.972Z,47.77
2018-03-18T01:39:37.451Z,54.57
2018-03-18T01:42:04.944Z,46.03
2018-03-18T01:44:33.183Z,51.30
2018-03-18T01:47:00.779Z,47.57
2018-03-18T01:49:29.028Z,53.53
2018-03-18T01:51:56.497Z,54.40
2018-03-18T01:54:23.973Z,45.83
2018-03-18T01:56:52.205Z,48.33
2018-03-18T01:59:19.669Z,50.13
2018-03-18T02:01:47.146Z,50.83
2018-03-18T02:04:14.620Z,44.00
2018-03-18T02:06:42.860Z,50.57
2018-03-18T02:09:10.333Z,48.23
2018-03-18T02:11:37.810Z,52.03
2018-03-18T02:14:06.045Z,44.90
2018-03-18T02:16:33.520Z,45.43
2018-03-18T02:19:00.976Z,51.60
2018-03-18T02:21:28.452Z,48.43
2018-03-18T02:23:56.689Z,45.33
2018-03-18T02:26:24.168Z,46.70
2018-03-18T02:28:51.732Z,49.30
2018-03-18T02:31:19.206Z,42.80
2018-03-18T02:33:47.445Z,44.30
2018-03-18T02:36:14.921Z,49.50
2018-03-18T02:38:42.393Z,40.00
2018-03-18T02:41:09.879Z,51.73
2018-03-18T02:43:37.353Z,48.70
2018-03-18T02:46:04.825Z,50.50
2018-03-18T02:48:32.296Z,53.83
2018-03-18T02:50:59.778Z,50.80
2018-03-18T02:53:27.243Z,42.33
2018-03-18T02:55:55.493Z,48.80
2018-03-18T02:58:22.956Z,47.87
2018-03-18T03:00:50.421Z,45.23
2018-03-18T03:03:17.897Z,41.73
2018-03-18T03:05:46.129Z,46.23
2018-03-18T03:08:13.765Z,46.73
2018-03-18T03:10:41.228Z,43.23
2018-03-18T03:13:08.899Z,47.23
2018-03-18T03:15:36.367Z,46.27
2018-03-18T03:18:03.843Z,44.80
2018-03-18T03:20:31.306Z,48.77
2018-03-18T03:22:58.788Z,42.53
2018-03-18T03:25:27.016Z,48.03
2018-03-18T03:27:54.497Z,49.07
2018-03-18T03:30:21.964Z,49.60
2018-03-18T03:32:50.231Z,41.77
2018-03-18T03:35:17.692Z,49.97
2018-03-18T03:37:45.173Z,47.20
2018-03-18T03:40:13.411Z,47.97
2018-03-18T03:42:40.891Z,46.07
2018-03-18T03:45:08.349Z,50.37
2018-03-18T03:47:36.599Z,41.27
2018-03-18T03:50:04.057Z,47.53
2018-03-18T03:52:31.536Z,49.50
2018-03-18T03:54:58.996Z,49.37
2018-03-18T03:57:26.507Z,50.07
2018-03-18T03:59:53.980Z,53.73
2018-03-18T04:02:21.447Z,50.53
2018-03-18T04:04:48.925Z,43.47
2018-03-18T04:07:16.394Z,48.27
2018-03-18T04:09:44.642Z,46.70
2018-03-18T04:12:12.105Z,45.73
2018-03-18T04:14:39.615Z,51.80
2018-03-18T04:17:07.076Z,43.50
2018-03-18T04:19:34.556Z,45.37
2018-03-18T04:22:02.028Z,46.97
2018-03-18T04:24:29.508Z,41.90
2018-03-18T04:26:56.983Z,50.67
2018-03-18T04:29:25.227Z,45.87
2018-03-18T04:31:52.692Z,44.20
2018-03-18T04:34:20.228Z,43.77
2018-03-18T04:36:47.652Z,51.20
2018-03-18T04:39:15.131Z,42.27
2018-03-18T04:41:42.594Z,46.67
2018-03-18T04:44:10.068Z,48.23
2018-03-18T04:46:37.543Z,50.83
2018-03-18T04:49:05.013Z,47.57
2018-03-18T04:51:33.246Z,44.90
2018-03-18T04:54:00.730Z,43.67
2018-03-18T04:56:28.188Z,48.90
2018-03-18T04:58:55.652Z,43.30
2018-03-18T05:01:23.893Z,46.90
2018-03-18T05:03:51.364Z,47.67
2018-03-18T05:06:18.845Z,51.37
2018-03-18T05:08:47.079Z,49.17
2018-03-18T05:11:14.564Z,48.20
2018-03-18T05:13:42.032Z,48.77
2018-03-18T05:16:10.293Z,50.30
2018-03-18T05:18:37.769Z,43.37
2018-03-18T05:21:05.244Z,40.87
2018-03-18T05:23:33.472Z,48.47
2018-03-18T05:26:00.960Z,44.50
2018-03-18T05:28:28.420Z,47.70
2018-03-18T05:30:56.660Z,40.73
2018-03-18T05:33:24.144Z,43.27
2018-03-18T05:35:51.613Z,43.27
2018-03-18T05:38:19.848Z,48.23
2018-03-18T05:40:47.325Z,42.83
2018-03-18T05:43:14.789Z,49.60
2018-03-18T05:45:42.259Z,48.07
2018-03-18T05:48:10.496Z,49.87
2018-03-18T05:50:37.983Z,48.20
2018-03-18T05:53:05.863Z,49.07
2018-03-18T05:55:34.109Z,48.77
2018-03-18T05:58:01.582Z,43.97
2018-03-18T06:00:29.070Z,45.67
2018-03-18T06:02:57.307Z,42.87
2018-03-18T06:05:24.780Z,41.23
2018-03-18T06:07:52.260Z,42.30
2018-03-18T06:10:20.488Z,49.20
2018-03-18T06:12:47.963Z,43.87
2018-03-18T06:15:15.429Z,46.43
2018-03-18T06:17:42.902Z,43.70
2018-03-18T06:20:11.135Z,46.23
2018-03-18T06:22:38.610Z,47.27
2018-03-18T06:25:06.080Z,45.70
2018-03-18T06:27:33.565Z,45.90
2018-03-18T06:30:01.067Z,45.43
2018-03-18T06:32:28.545Z,50.30
2018-03-18T06:34:56.022Z,40.87
2018-03-18T06:37:24.260Z,41.13
2018-03-18T06:39:51.734Z,45.73
2018-03-18T06:42:19.216Z,43.87
2018-03-18T06:44:47.451Z,45.10
2018-03-18T06:47:14.938Z,44.23
2018-03-18T06:49:43.342Z,44.77
2018-03-18T06:52:10.876Z,44.50
2018-03-18T06:54:39.115Z,43.17
2018-03-18T06:57:07.641Z,40.67
2018-03-18T06:59:35.883Z,39.20
2018-03-18T07:02:03.345Z,41.07
2018-03-18T07:04:30.824Z,40.93
2018-03-18T07:06:58.285Z,44.53
2018-03-18T07:09:26.544Z,40.03
2018-03-18T07:11:54.012Z,42.10
2018-03-18T07:14:22.264Z,43.43
2018-03-18T07:16:50.495Z,37.83
2018-03-18T07:19:17.988Z,37.60
2018-03-18T07:21:45.454Z,42.07
2018-03-18T07:24:12.989Z,42.23
2018-03-18T07:26:40.552Z,39.83
2018-03-18T07:29:08.060Z,38.17
2018-03-18T07:31:36.445Z,41.23
2018-03-18T07:34:05.092Z,49.80
2018-03-18T07:36:32.631Z,38.87
2018-03-18T07:39:00.995Z,41.17
2018-03-18T07:41:31.951Z,45.63
2018-03-18T07:43:59.429Z,37.67
2018-03-18T07:46:26.916Z,41.17
2018-03-18T07:48:54.398Z,43.93
2018-03-18T07:51:22.636Z,38.10
2018-03-18T07:53:51.093Z,42.40
2018-03-18T07:56:18.615Z,41.70
2018-03-18T07:58:46.043Z,37.97
2018-03-18T08:01:13.527Z,45.20
2018-03-18T08:03:41.880Z,40.80
2018-03-18T08:06:09.351Z,42.53
2018-03-18T08:08:36.840Z,38.57
2018-03-18T08:11:04.320Z,43.00
2018-03-18T08:13:31.813Z,40.50
2018-03-18T08:15:59.280Z,45.13
2018-03-18T08:18:26.752Z,40.87
2018-03-18T08:20:55.024Z,39.90
2018-03-18T08:23:22.468Z,45.33
2018-03-18T08:25:49.981Z,40.27
2018-03-18T08:28:27.408Z,37.77
2018-03-18T08:30:54.950Z,37.97
2018-03-18T08:33:22.394Z,47.47
2018-03-18T08:35:49.877Z,41.53
2018-03-18T08:38:17.949Z,43.60
2018-03-18T08:40:46.249Z,43.40
2018-03-18T08:43:13.804Z,43.43
2018-03-18T08:45:41.272Z,46.27
2018-03-18T08:48:08.801Z,46.07
2018-03-18T08:50:36.282Z,38.60
2018-03-18T08:53:03.742Z,35.57
2018-03-18T08:55:31.225Z,42.57
2018-03-18T08:57:59.457Z,38.57
2018-03-18T09:00:26.933Z,41.87
2018-03-18T09:02:54.390Z,40.63
2018-03-18T09:05:21.874Z,44.17
2018-03-18T09:07:50.317Z,42.50
2018-03-18T09:10:17.855Z,42.50
2018-03-18T09:12:45.393Z,51.23
2018-03-18T09:15:12.987Z,38.30
2018-03-18T09:17:40.519Z,38.33
2018-03-18T09:20:08.013Z,39.10
2018-03-18T09:22:35.834Z,40.07
2018-03-18T09:25:03.320Z,46.07
2018-03-18T09:27:30.808Z,40.40
2018-03-18T09:29:58.290Z,39.73
2018-03-18T09:32:26.615Z,38.90
2018-03-18T09:34:54.084Z,44.07
2018-03-18T09:37:21.644Z,42.70
2018-03-18T09:39:49.110Z,38.43
2018-03-18T09:42:16.620Z,39.80
2018-03-18T09:44:44.093Z,44.67
2018-03-18T09:47:11.605Z,35.87
2018-03-18T09:49:39.079Z,40.20
2018-03-18T09:52:07.453Z,38.10
2018-03-18T09:54:35.713Z,35.00
2018-03-18T09:57:03.327Z,42.60
2018-03-18T09:59:31.670Z,40.63
2018-03-18T10:01:59.996Z,33.80
2018-03-18T10:04:27.518Z,40.10
2018-03-18T10:06:55.053Z,36.77
2018-03-18T10:09:23.457Z,42.67
2018-03-18T10:11:51.146Z,39.87
2018-03-18T10:14:18.666Z,40.50
2018-03-18T10:16:46.203Z,38.43
2018-03-18T10:19:13.743Z,39.10
2018-03-18T10:21:41.394Z,35.30
2018-03-18T10:24:09.153Z,43.30
2018-03-18T10:26:36.716Z,34.20
2018-03-18T10:29:04.254Z,34.70
2018-03-18T10:31:31.896Z,35.67
2018-03-18T10:34:00.304Z,37.83
2018-03-18T10:36:27.790Z,44.17
2018-03-18T10:38:56.039Z,39.80
2018-03-18T10:41:23.500Z,38.13
2018-03-18T10:43:50.988Z,41.87
2018-03-18T10:46:18.468Z,38.33
2018-03-18T10:48:46.753Z,37.37
2018-03-18T10:51:14.208Z,38.77
2018-03-18T10:53:42.460Z,39.33
2018-03-18T10:56:09.920Z,36.50
2018-03-18T10:58:37.481Z,38.93
2018-03-18T11:01:13.665Z,39.80
2018-03-18T11:03:41.917Z,38.23
2018-03-18T11:06:09.402Z,43.00
2018-03-18T11:08:37.824Z,33.77
2018-03-18T11:11:05.413Z,40.87
2018-03-18T11:13:32.904Z,39.57
2018-03-18T11:16:01.226Z,42.30
2018-03-18T11:18:29.481Z,40.90
2018-03-18T11:20:56.938Z,43.43
2018-03-18T11:23:24.617Z,39.20
2018-03-18T11:25:52.228Z,37.97
2018-03-18T11:28:19.792Z,38.20
2018-03-18T11:30:48.765Z,43.33
2018-03-18T11:33:17.032Z,37.00
2018-03-18T11:35:44.855Z,41.97
2018-03-18T11:38:12.480Z,47.70
2018-03-18T11:40:41.999Z,35.27
2018-03-18T11:43:10.248Z,37.97
2018-03-18T11:45:37.742Z,43.93
2018-03-18T11:48:15.111Z,39.27
2018-03-18T11:50:43.359Z,42.23
2018-03-18T11:53:10.860Z,39.80
2018-03-18T11:55:38.345Z,38.30
2018-03-18T11:58:06.588Z,40.17
2018-03-18T12:00:34.840Z,37.40
2018-03-18T12:03:02.334Z,38.50
2018-03-18T12:05:29.801Z,36.07
2018-03-18T12:07:57.263Z,39.90
2018-03-18T12:10:24.847Z,36.13
2018-03-18T12:12:52.321Z,41.57
2018-03-18T12:15:19.822Z,38.60
2018-03-18T12:17:47.355Z,42.80
2018-03-18T12:20:14.824Z,39.23
2018-03-18T12:22:42.330Z,39.10
2018-03-18T12:25:09.804Z,39.00
2018-03-18T12:27:37.268Z,37.27
2018-03-18T12:30:04.863Z,39.70
2018-03-18T12:32:32.443Z,38.47
2018-03-18T12:34:59.994Z,36.83
2018-03-18T12:37:29.324Z,40.80
2018-03-18T12:40:08.560Z,39.50
2018-03-18T12:43:09.485Z,39.77
2018-03-18T12:45:41.901Z,39.67
2018-03-18T12:48:26.936Z,40.77
2018-03-18T12:51:23.829Z,40.20
2018-03-18T12:54:30.979Z,41.63
2018-03-18T12:57:25.635Z,41.87
2018-03-18T13:16:12.146Z,37.70
2018-03-18T13:18:40.492Z,37.97
2018-03-18T13:21:07.981Z,45.00
2018-03-18T13:23:36.302Z,36.60
2018-03-18T13:26:03.819Z,41.50
2018-03-18T13:28:31.329Z,39.93
2018-03-18T13:30:59.609Z,40.50
2018-03-18T13:33:27.891Z,43.10
2018-03-18T13:35:55.382Z,34.10
2018-03-18T13:38:22.898Z,42.37
2018-03-18T13:40:53.593Z,39.20
2018-03-18T13:43:36.519Z,36.30
2018-03-18T13:46:04.006Z,41.83
2018-03-18T13:48:31.521Z,40.13
2018-03-18T13:50:59.783Z,36.43
2018-03-18T13:53:39.332Z,39.43
2018-03-18T13:56:09.192Z,35.17
2018-03-18T14:02:18.702Z,37.10
2018-03-18T14:07:49.625Z,38.13
2018-03-18T14:13:28.664Z,34.13
2018-03-18T14:15:56.253Z,41.40
2018-03-18T14:18:24.553Z,36.13
2018-03-18T14:20:52.150Z,38.10
2018-03-18T14:23:19.669Z,41.50
2018-03-18T14:25:47.190Z,37.97
2018-03-18T14:28:14.705Z,38.90
2018-03-18T14:30:42.220Z,41.00
2018-03-18T14:33:09.767Z,40.80
2018-03-18T14:35:37.270Z,37.47
2018-03-18T14:38:05.571Z,35.43
2018-03-18T14:40:33.088Z,42.97
2018-03-18T14:43:01.392Z,42.27
2018-03-18T14:45:28.907Z,40.27
2018-03-18T14:47:56.510Z,37.70
2018-03-18T14:50:24.030Z,45.90
2018-03-18T14:52:51.544Z,40.50
2018-03-18T14:55:19.076Z,38.27
2018-03-18T14:57:47.390Z,38.30
2018-03-18T15:00:14.949Z,37.80
2018-03-18T15:02:42.499Z,37.47
2018-03-18T15:05:10.039Z,36.97
2018-03-18T15:07:37.591Z,36.77
2018-03-18T15:10:05.154Z,41.67
2018-03-18T15:12:33.634Z,39.50
2018-03-18T15:15:01.211Z,41.13
2018-03-18T15:17:28.761Z,34.80
2018-03-18T15:19:56.318Z,38.97
2018-03-18T15:22:23.863Z,39.77
2018-03-18T15:24:52.179Z,42.53
2018-03-18T15:27:19.777Z,40.30
2018-03-18T15:29:47.315Z,41.47
2018-03-18T15:32:14.863Z,39.20
2018-03-18T15:34:42.405Z,40.80
2018-03-18T15:37:09.950Z,43.87
2018-03-18T15:39:37.524Z,40.13
2018-03-18T15:42:05.043Z,36.07
2018-03-18T15:44:32.608Z,46.43
2018-03-18T15:47:01.684Z,44.73
2018-03-18T15:49:29.236Z,42.73
2018-03-18T15:51:57.562Z,41.73
2018-03-18T15:54:25.139Z,38.00
2018-03-18T15:56:52.711Z,40.90
2018-03-18T15:59:20.290Z,44.10
2018-03-18T16:01:47.806Z,40.20
2018-03-18T16:04:15.364Z,42.13
2018-03-18T16:06:42.936Z,39.33
2018-03-18T16:09:10.507Z,41.00
2018-03-18T16:11:38.069Z,43.90
2018-03-18T16:14:05.609Z,43.03
2018-03-18T16:16:33.169Z,45.57
2018-03-18T16:19:00.673Z,43.80
2018-03-18T16:21:28.206Z,37.43
2018-03-18T16:23:55.739Z,39.70
2018-03-18T16:26:24.053Z,42.23
2018-03-18T16:28:51.546Z,43.60
2018-03-18T16:31:19.830Z,46.37
2018-03-18T16:33:48.208Z,42.80
2018-03-18T16:36:15.721Z,47.60
2018-03-18T16:38:43.204Z,40.50
2018-03-18T16:41:11.676Z,50.33
2018-03-18T16:43:39.282Z,45.67
2018-03-18T16:46:07.556Z,42.47
2018-03-18T16:48:35.873Z,43.83
2018-03-18T16:51:03.365Z,48.37
2018-03-18T16:53:30.894Z,47.87
2018-03-18T16:55:58.393Z,40.30
2018-03-18T16:58:25.907Z,50.67
2018-03-18T17:00:53.588Z,49.83
2018-03-18T17:03:21.108Z,49.40
2018-03-18T17:05:48.625Z,55.83
2018-03-18T17:08:16.896Z,50.37
2018-03-18T17:10:44.361Z,47.90
2018-03-18T17:13:11.851Z,47.30
2018-03-18T17:15:40.277Z,45.00
2018-03-18T17:18:07.779Z,43.60
2018-03-18T17:20:36.330Z,44.10
2018-03-18T17:23:03.835Z,43.47
2018-03-18T17:25:31.568Z,51.07
2018-03-18T17:27:59.267Z,37.60
2018-03-18T17:30:26.912Z,47.83
2018-03-18T17:32:55.249Z,45.13
2018-03-18T17:35:22.780Z,44.27
2018-03-18T17:37:50.298Z,41.53
2018-03-18T17:40:18.557Z,40.53
2018-03-18T17:42:46.090Z,37.83
2018-03-18T17:45:25.576Z,39.67
2018-03-18T17:48:05.575Z,48.37
2018-03-18T17:50:50.810Z,46.40
2018-03-18T17:53:30.938Z,41.40
2018-03-18T17:56:10.482Z,44.17
2018-03-18T17:58:37.969Z,43.97
2018-03-18T18:01:05.436Z,50.13
2018-03-18T18:03:32.926Z,47.70
2018-03-18T18:06:00.397Z,42.33
2018-03-18T18:08:27.897Z,47.00
2018-03-18T18:10:56.144Z,46.27
2018-03-18T18:13:23.676Z,47.80
2018-03-18T18:15:51.180Z,44.07
2018-03-18T18:18:19.503Z,44.43
2018-03-18T18:20:47.034Z,41.83
2018-03-18T18:23:15.070Z,42.03
2018-03-18T18:25:42.618Z,46.00
2018-03-18T18:28:10.158Z,42.97
2018-03-18T18:30:37.642Z,48.40
2018-03-18T18:33:05.174Z,43.13
2018-03-18T18:35:32.636Z,47.30
2018-03-18T18:38:00.105Z,48.17
2018-03-18T18:40:28.396Z,45.73
2018-03-18T18:42:55.885Z,50.57
2018-03-18T18:45:23.383Z,42.97
2018-03-18T18:47:50.865Z,44.70
2018-03-18T18:50:18.357Z,43.70
2018-03-18T18:52:46.593Z,48.03
2018-03-18T18:55:14.106Z,43.87
2018-03-18T18:57:41.578Z,48.37
2018-03-18T19:00:09.059Z,41.77
2018-03-18T19:02:36.560Z,49.60
2018-03-18T19:05:04.050Z,53.33
2018-03-18T19:07:31.533Z,46.57
2018-03-18T19:09:59.165Z,48.50
2018-03-18T19:12:26.822Z,49.33
2018-03-18T19:14:54.306Z,49.60
2018-03-18T19:17:21.777Z,48.90
2018-03-18T19:19:49.282Z,48.50
2018-03-18T19:22:16.775Z,48.00
2018-03-18T19:24:44.259Z,48.13
2018-03-18T19:27:11.777Z,46.93
2018-03-18T19:29:39.257Z,50.07
2018-03-18T19:32:06.738Z,52.90
2018-03-18T19:34:34.231Z,49.40
2018-03-18T19:37:01.735Z,46.27
2018-03-18T19:39:29.219Z,44.17
2018-03-18T19:41:56.949Z,58.70
2018-03-18T19:44:24.583Z,56.50
2018-03-18T19:46:52.136Z,51.30
2018-03-18T19:49:19.618Z,56.00
2018-03-18T19:51:47.102Z,49.37
2018-03-18T19:54:15.014Z,51.77
2018-03-18T19:56:43.249Z,56.23
2018-03-18T19:59:10.708Z,50.10
2018-03-18T20:01:38.195Z,50.33
2018-03-18T20:04:06.434Z,53.93
2018-03-18T20:06:34.342Z,57.50
2018-03-18T20:09:02.574Z,53.50
2018-03-18T20:11:30.042Z,51.07
2018-03-18T20:13:57.538Z,58.60
2018-03-18T20:16:25.795Z,56.27
2018-03-18T20:18:53.317Z,50.97
2018-03-18T20:21:20.864Z,52.87
2018-03-18T20:23:48.335Z,49.53
2018-03-18T20:26:15.803Z,50.97
2018-03-18T20:28:43.268Z,50.47
2018-03-18T20:31:10.739Z,52.73
2018-03-18T20:33:38.192Z,51.50
2018-03-18T20:36:05.668Z,53.97
2018-03-18T20:38:33.887Z,52.67
2018-03-18T20:41:01.360Z,50.13
2018-03-18T20:43:28.819Z,49.13
2018-03-18T20:45:56.288Z,57.90
2018-03-18T20:48:23.749Z,50.13
2018-03-18T20:50:51.229Z,62.43
2018-03-18T20:53:19.453Z,48.70
2018-03-18T20:55:46.907Z,51.10
2018-03-18T20:58:14.380Z,56.87
2018-03-18T21:00:41.846Z,62.03
2018-03-18T21:03:09.438Z,52.63
2018-03-18T21:05:37.676Z,59.30
2018-03-18T21:08:05.149Z,63.50
2018-03-18T21:10:32.604Z,65.20
2018-03-18T21:13:00.077Z,65.97
2018-03-18T21:15:27.532Z,65.27
2018-03-18T21:17:55.009Z,57.40
2018-03-18T21:20:23.237Z,57.87
2018-03-18T21:22:50.705Z,66.00
2018-03-18T21:25:18.172Z,63.73
2018-03-18T21:27:45.673Z,67.30
2018-03-18T21:30:13.144Z,68.30
2018-03-18T21:32:40.617Z,67.00
2018-03-18T21:35:08.082Z,60.50
2018-03-18T21:37:36.317Z,61.20
2018-03-18T21:40:03.790Z,64.40
2018-03-18T21:42:31.249Z,62.43
2018-03-18T21:44:58.708Z,67.03
2018-03-18T21:47:26.186Z,63.83
2018-03-18T21:49:53.646Z,56.10
2018-03-18T21:52:21.115Z,60.70
2018-03-18T21:54:48.583Z,58.83
2018-03-18T21:57:16.038Z,58.10
2018-03-18T21:59:43.503Z,58.00
2018-03-18T22:02:10.964Z,52.23
2018-03-18T22:04:38.437Z,54.13
2018-03-18T22:07:06.660Z,57.73
2018-03-18T22:09:34.126Z,56.77
2018-03-18T22:12:01.588Z,56.90
2018-03-18T22:14:29.062Z,55.40
2018-03-18T22:16:56.520Z,53.77
2018-03-18T22:19:23.993Z,58.67
2018-03-18T22:21:51.447Z,64.13
2018-03-18T22:24:19.691Z,55.07
2018-03-18T22:26:47.148Z,54.47
2018-03-18T22:29:14.611Z,55.67
2018-03-18T22:31:42.071Z,64.60
2018-03-18T22:34:09.536Z,59.20
2018-03-18T22:36:36.989Z,58.50
2018-03-18T22:39:04.472Z,54.37
2018-03-18T22:41:32.696Z,60.80
2018-03-18T22:44:00.164Z,57.37
2018-03-18T22:46:27.631Z,52.73
2018-03-18T22:48:55.095Z,58.80
2018-03-18T22:51:22.548Z,58.27
2018-03-18T22:53:50.017Z,56.73
2018-03-18T22:56:17.473Z,59.83
2018-03-18T22:58:44.928Z,56.30
2018-03-18T23:01:12.398Z,52.03
2018-03-18T23:03:39.855Z,54.00
2018-03-18T23:06:07.317Z,59.50
2018-03-18T23:08:35.544Z,55.57
2018-03-18T23:11:03.012Z,49.30
2018-03-18T23:13:30.468Z,53.80
2018-03-18T23:15:57.932Z,57.80
2018-03-18T23:18:25.388Z,54.73
2018-03-18T23:20:52.860Z,73.53
2018-03-18T23:23:20.332Z,63.20
2018-03-18T23:25:48.149Z,59.33
2018-03-18T23:28:15.599Z,60.00
2018-03-18T23:30:43.071Z,53.83
2018-03-18T23:33:10.527Z,69.93
2018-03-18T23:35:37.992Z,59.03
2018-03-18T23:38:05.447Z,63.43
2018-03-18T23:40:32.916Z,64.03
2018-03-18T23:43:00.376Z,60.73
2018-03-18T23:45:27.856Z,70.33
2018-03-18T23:47:55.358Z,64.83
2018-03-18T23:50:22.832Z,54.70
2018-03-18T23:52:50.294Z,62.60
2018-03-18T23:55:17.748Z,64.10
2018-03-18T23:57:45.215Z,56.43
